sensor_id;sensor_type;location;lat;lon;timestamp;P1;durP1;ratioP1;P2;durP2;ratioP2
47894;SDS011;33653;52.302;8.134;2023-05-15T00:00:55;4.75;;;2.85;;
47894;SDS011;33653;52.302;8.134;2023-05-15T00:03:24;3.83;;;3.20;;
47894;SDS011;33653;52.302;8.134;2023-05-15T00:05:53;3.80;;;3.08;;
47894;SDS011;33653;52.302;8.134;2023-05-15T00:08:21;5.30;;;3.08;;
47894;SDS011;33653;52.302;8.134;2023-05-15T00:10:49;6.40;;;3.42;;
47894;SDS011;33653;52.302;8.134;2023-05-15T00:13:27;3.13;;;2.78;;
47894;SDS011;33653;52.302;8.134;2023-05-15T00:15:56;3.78;;;3.13;;
47894;SDS011;33653;52.302;8.134;2023-05-15T00:18:24;2.85;;;2.58;;
47894;SDS011;33653;52.302;8.134;2023-05-15T00:20:53;4.18;;;2.72;;
47894;SDS011;33653;52.302;8.134;2023-05-15T00:23:21;3.72;;;3.00;;
47894;SDS011;33653;52.302;8.134;2023-05-15T00:25:50;4.70;;;2.90;;
47894;SDS011;33653;52.302;8.134;2023-05-15T00:28:18;4.53;;;3.05;;
47894;SDS011;33653;52.302;8.134;2023-05-15T00:30:47;4.13;;;3.33;;
47894;SDS011;33653;52.302;8.134;2023-05-15T00:33:16;4.00;;;3.05;;
47894;SDS011;33653;52.302;8.134;2023-05-15T00:35:44;3.03;;;2.65;;
47894;SDS011;33653;52.302;8.134;2023-05-15T00:38:12;5.68;;;3.67;;
47894;SDS011;33653;52.302;8.134;2023-05-15T00:40:40;4.05;;;3.35;;
47894;SDS011;33653;52.302;8.134;2023-05-15T00:43:11;3.80;;;3.17;;
47894;SDS011;33653;52.302;8.134;2023-05-15T00:45:40;9.23;;;4.32;;
47894;SDS011;33653;52.302;8.134;2023-05-15T00:48:09;4.00;;;3.58;;
47894;SDS011;33653;52.302;8.134;2023-05-15T00:50:37;8.82;;;3.85;;
47894;SDS011;33653;52.302;8.134;2023-05-15T00:53:08;4.05;;;3.03;;
47894;SDS011;33653;52.302;8.134;2023-05-15T00:55:36;4.00;;;3.42;;
47894;SDS011;33653;52.302;8.134;2023-05-15T00:58:05;5.35;;;3.05;;
47894;SDS011;33653;52.302;8.134;2023-05-15T01:00:34;3.95;;;3.00;;
47894;SDS011;33653;52.302;8.134;2023-05-15T01:03:04;3.42;;;2.95;;
47894;SDS011;33653;52.302;8.134;2023-05-15T01:05:33;3.72;;;2.83;;
47894;SDS011;33653;52.302;8.134;2023-05-15T01:11:13;2.88;;;2.60;;
47894;SDS011;33653;52.302;8.134;2023-05-15T01:13:45;2.90;;;2.70;;
47894;SDS011;33653;52.302;8.134;2023-05-15T01:16:13;3.53;;;3.08;;
47894;SDS011;33653;52.302;8.134;2023-05-15T01:18:41;5.22;;;2.92;;
47894;SDS011;33653;52.302;8.134;2023-05-15T01:21:26;3.53;;;2.40;;
47894;SDS011;33653;52.302;8.134;2023-05-15T01:32:34;3.35;;;2.70;;
47894;SDS011;33653;52.302;8.134;2023-05-15T01:35:30;2.53;;;2.33;;
47894;SDS011;33653;52.302;8.134;2023-05-15T01:41:05;3.17;;;2.72;;
47894;SDS011;33653;52.302;8.134;2023-05-15T01:43:55;3.33;;;3.03;;
47894;SDS011;33653;52.302;8.134;2023-05-15T01:46:45;4.72;;;3.28;;
47894;SDS011;33653;52.302;8.134;2023-05-15T01:49:19;3.70;;;2.63;;
47894;SDS011;33653;52.302;8.134;2023-05-15T01:52:00;3.05;;;2.47;;
47894;SDS011;33653;52.302;8.134;2023-05-15T01:54:45;5.35;;;2.85;;
47894;SDS011;33653;52.302;8.134;2023-05-15T01:57:14;3.65;;;2.90;;
47894;SDS011;33653;52.302;8.134;2023-05-15T01:59:44;3.20;;;2.90;;
47894;SDS011;33653;52.302;8.134;2023-05-15T02:02:13;4.38;;;3.97;;
47894;SDS011;33653;52.302;8.134;2023-05-15T02:04:42;3.70;;;3.35;;
47894;SDS011;33653;52.302;8.134;2023-05-15T02:07:12;4.13;;;3.30;;
47894;SDS011;33653;52.302;8.134;2023-05-15T02:09:41;3.78;;;2.95;;
47894;SDS011;33653;52.302;8.134;2023-05-15T02:12:10;3.92;;;3.15;;
47894;SDS011;33653;52.302;8.134;2023-05-15T02:14:39;5.57;;;4.03;;
47894;SDS011;33653;52.302;8.134;2023-05-15T02:17:07;6.72;;;3.33;;
47894;SDS011;33653;52.302;8.134;2023-05-15T02:19:36;4.78;;;3.90;;
47894;SDS011;33653;52.302;8.134;2023-05-15T02:22:04;4.30;;;3.17;;
47894;SDS011;33653;52.302;8.134;2023-05-15T02:24:32;4.55;;;3.67;;
47894;SDS011;33653;52.302;8.134;2023-05-15T02:33:55;4.32;;;3.80;;
47894;SDS011;33653;52.302;8.134;2023-05-15T02:36:52;4.25;;;3.85;;
47894;SDS011;33653;52.302;8.134;2023-05-15T02:39:24;5.13;;;3.33;;
47894;SDS011;33653;52.302;8.134;2023-05-15T02:41:53;5.75;;;3.95;;
47894;SDS011;33653;52.302;8.134;2023-05-15T02:44:22;4.05;;;3.47;;
47894;SDS011;33653;52.302;8.134;2023-05-15T02:46:51;6.22;;;4.18;;
47894;SDS011;33653;52.302;8.134;2023-05-15T02:49:20;9.52;;;4.20;;
47894;SDS011;33653;52.302;8.134;2023-05-15T02:51:49;3.95;;;3.42;;
47894;SDS011;33653;52.302;8.134;2023-05-15T02:54:17;4.53;;;4.13;;
47894;SDS011;33653;52.302;8.134;2023-05-15T02:56:46;3.53;;;3.20;;
47894;SDS011;33653;52.302;8.134;2023-05-15T02:59:14;4.28;;;3.80;;
47894;SDS011;33653;52.302;8.134;2023-05-15T03:01:45;3.63;;;3.30;;
47894;SDS011;33653;52.302;8.134;2023-05-15T03:04:14;3.80;;;3.20;;
47894;SDS011;33653;52.302;8.134;2023-05-15T03:06:42;4.40;;;3.83;;
47894;SDS011;33653;52.302;8.134;2023-05-15T03:09:11;3.83;;;3.08;;
47894;SDS011;33653;52.302;8.134;2023-05-15T03:11:39;5.20;;;3.22;;
47894;SDS011;33653;52.302;8.134;2023-05-15T03:14:07;3.28;;;2.97;;
47894;SDS011;33653;52.302;8.134;2023-05-15T03:16:36;3.97;;;3.13;;
47894;SDS011;33653;52.302;8.134;2023-05-15T03:19:05;3.42;;;3.10;;
47894;SDS011;33653;52.302;8.134;2023-05-15T03:21:33;3.70;;;2.88;;
47894;SDS011;33653;52.302;8.134;2023-05-15T03:24:01;4.05;;;3.30;;
47894;SDS011;33653;52.302;8.134;2023-05-15T03:26:30;3.80;;;3.22;;
47894;SDS011;33653;52.302;8.134;2023-05-15T03:28:59;3.85;;;3.50;;
47894;SDS011;33653;52.302;8.134;2023-05-15T03:31:28;5.38;;;3.78;;
47894;SDS011;33653;52.302;8.134;2023-05-15T03:33:56;3.78;;;3.30;;
47894;SDS011;33653;52.302;8.134;2023-05-15T03:36:25;4.50;;;3.60;;
47894;SDS011;33653;52.302;8.134;2023-05-15T03:38:53;5.43;;;3.80;;
47894;SDS011;33653;52.302;8.134;2023-05-15T03:41:22;3.70;;;3.25;;
47894;SDS011;33653;52.302;8.134;2023-05-15T03:43:52;8.15;;;3.17;;
47894;SDS011;33653;52.302;8.134;2023-05-15T03:46:20;5.32;;;3.15;;
47894;SDS011;33653;52.302;8.134;2023-05-15T03:48:48;3.60;;;3.08;;
47894;SDS011;33653;52.302;8.134;2023-05-15T03:51:16;4.22;;;3.08;;
47894;SDS011;33653;52.302;8.134;2023-05-15T03:53:45;4.63;;;3.33;;
47894;SDS011;33653;52.302;8.134;2023-05-15T03:56:13;4.45;;;3.10;;
47894;SDS011;33653;52.302;8.134;2023-05-15T03:58:41;3.63;;;3.33;;
47894;SDS011;33653;52.302;8.134;2023-05-15T04:01:09;3.53;;;3.20;;
47894;SDS011;33653;52.302;8.134;2023-05-15T04:03:38;6.57;;;4.20;;
47894;SDS011;33653;52.302;8.134;2023-05-15T04:06:06;5.25;;;4.22;;
47894;SDS011;33653;52.302;8.134;2023-05-15T04:08:34;5.60;;;3.72;;
47894;SDS011;33653;52.302;8.134;2023-05-15T04:11:04;5.80;;;5.07;;
47894;SDS011;33653;52.302;8.134;2023-05-15T04:13:33;5.53;;;4.50;;
47894;SDS011;33653;52.302;8.134;2023-05-15T04:16:01;5.32;;;4.47;;
47894;SDS011;33653;52.302;8.134;2023-05-15T04:18:30;6.47;;;4.88;;
47894;SDS011;33653;52.302;8.134;2023-05-15T04:20:58;7.65;;;5.10;;
47894;SDS011;33653;52.302;8.134;2023-05-15T04:23:27;7.45;;;4.35;;
47894;SDS011;33653;52.302;8.134;2023-05-15T04:25:55;6.45;;;5.00;;
47894;SDS011;33653;52.302;8.134;2023-05-15T04:28:23;6.60;;;4.93;;
47894;SDS011;33653;52.302;8.134;2023-05-15T04:30:52;8.07;;;6.03;;
47894;SDS011;33653;52.302;8.134;2023-05-15T04:33:20;6.05;;;5.45;;
47894;SDS011;33653;52.302;8.134;2023-05-15T04:35:48;7.25;;;5.15;;
47894;SDS011;33653;52.302;8.134;2023-05-15T04:38:16;5.20;;;4.60;;
47894;SDS011;33653;52.302;8.134;2023-05-15T04:40:45;5.22;;;4.10;;
47894;SDS011;33653;52.302;8.134;2023-05-15T04:43:13;5.38;;;4.03;;
47894;SDS011;33653;52.302;8.134;2023-05-15T04:45:41;5.20;;;4.32;;
47894;SDS011;33653;52.302;8.134;2023-05-15T04:48:10;5.65;;;4.55;;
47894;SDS011;33653;52.302;8.134;2023-05-15T04:50:38;6.15;;;3.70;;
47894;SDS011;33653;52.302;8.134;2023-05-15T04:53:06;5.93;;;4.22;;
47894;SDS011;33653;52.302;8.134;2023-05-15T04:55:34;5.07;;;4.53;;
47894;SDS011;33653;52.302;8.134;2023-05-15T04:58:03;5.80;;;4.90;;
47894;SDS011;33653;52.302;8.134;2023-05-15T05:00:31;3.95;;;3.55;;
47894;SDS011;33653;52.302;8.134;2023-05-15T05:02:59;5.57;;;4.45;;
47894;SDS011;33653;52.302;8.134;2023-05-15T05:05:27;5.28;;;4.20;;
47894;SDS011;33653;52.302;8.134;2023-05-15T05:07:56;9.05;;;4.95;;
47894;SDS011;33653;52.302;8.134;2023-05-15T05:10:24;5.38;;;4.50;;
47894;SDS011;33653;52.302;8.134;2023-05-15T05:12:52;5.55;;;4.28;;
47894;SDS011;33653;52.302;8.134;2023-05-15T05:15:21;7.00;;;5.35;;
47894;SDS011;33653;52.302;8.134;2023-05-15T05:17:50;6.00;;;4.93;;
47894;SDS011;33653;52.302;8.134;2023-05-15T05:20:19;6.80;;;5.40;;
47894;SDS011;33653;52.302;8.134;2023-05-15T05:22:47;7.88;;;5.82;;
47894;SDS011;33653;52.302;8.134;2023-05-15T05:25:15;7.18;;;5.68;;
47894;SDS011;33653;52.302;8.134;2023-05-15T05:27:44;7.97;;;5.90;;
47894;SDS011;33653;52.302;8.134;2023-05-15T05:30:12;7.00;;;5.45;;
47894;SDS011;33653;52.302;8.134;2023-05-15T05:32:41;10.90;;;6.80;;
47894;SDS011;33653;52.302;8.134;2023-05-15T05:35:09;8.57;;;6.47;;
47894;SDS011;33653;52.302;8.134;2023-05-15T05:37:37;10.32;;;7.55;;
47894;SDS011;33653;52.302;8.134;2023-05-15T05:40:07;10.63;;;8.32;;
47894;SDS011;33653;52.302;8.134;2023-05-15T05:42:36;14.90;;;9.63;;
47894;SDS011;33653;52.302;8.134;2023-05-15T05:45:05;18.35;;;12.27;;
47894;SDS011;33653;52.302;8.134;2023-05-15T05:47:33;16.05;;;12.05;;
47894;SDS011;33653;52.302;8.134;2023-05-15T05:50:02;16.98;;;11.95;;
47894;SDS011;33653;52.302;8.134;2023-05-15T05:52:30;15.18;;;11.80;;
47894;SDS011;33653;52.302;8.134;2023-05-15T05:54:59;18.73;;;13.05;;
47894;SDS011;33653;52.302;8.134;2023-05-15T05:57:33;19.95;;;13.15;;
47894;SDS011;33653;52.302;8.134;2023-05-15T06:00:03;16.60;;;11.77;;
47894;SDS011;33653;52.302;8.134;2023-05-15T06:02:37;28.13;;;13.88;;
47894;SDS011;33653;52.302;8.134;2023-05-15T06:05:15;18.13;;;12.88;;
47894;SDS011;33653;52.302;8.134;2023-05-15T06:10:38;22.02;;;14.32;;
47894;SDS011;33653;52.302;8.134;2023-05-15T06:13:08;24.48;;;15.38;;
47894;SDS011;33653;52.302;8.134;2023-05-15T06:15:36;22.20;;;14.73;;
47894;SDS011;33653;52.302;8.134;2023-05-15T06:18:04;22.88;;;15.15;;
47894;SDS011;33653;52.302;8.134;2023-05-15T06:20:33;22.58;;;14.85;;
47894;SDS011;33653;52.302;8.134;2023-05-15T06:23:01;26.27;;;15.55;;
47894;SDS011;33653;52.302;8.134;2023-05-15T06:25:29;24.70;;;14.93;;
47894;SDS011;33653;52.302;8.134;2023-05-15T06:28:01;19.67;;;13.75;;
47894;SDS011;33653;52.302;8.134;2023-05-15T06:30:34;26.42;;;15.95;;
47894;SDS011;33653;52.302;8.134;2023-05-15T06:33:04;24.88;;;15.57;;
47894;SDS011;33653;52.302;8.134;2023-05-15T06:35:34;21.75;;;15.10;;
47894;SDS011;33653;52.302;8.134;2023-05-15T06:40:56;24.48;;;13.57;;
47894;SDS011;33653;52.302;8.134;2023-05-15T06:43:24;21.88;;;13.73;;
47894;SDS011;33653;52.302;8.134;2023-05-15T06:45:52;25.45;;;15.55;;
47894;SDS011;33653;52.302;8.134;2023-05-15T06:48:20;24.35;;;15.57;;
47894;SDS011;33653;52.302;8.134;2023-05-15T06:50:49;27.25;;;14.90;;
47894;SDS011;33653;52.302;8.134;2023-05-15T06:56:16;22.50;;;15.13;;
47894;SDS011;33653;52.302;8.134;2023-05-15T06:58:44;24.80;;;15.85;;
47894;SDS011;33653;52.302;8.134;2023-05-15T07:01:24;22.85;;;15.82;;
47894;SDS011;33653;52.302;8.134;2023-05-15T07:03:52;26.00;;;15.68;;
47894;SDS011;33653;52.302;8.134;2023-05-15T07:06:21;24.50;;;16.52;;
47894;SDS011;33653;52.302;8.134;2023-05-15T07:08:49;25.75;;;16.52;;
47894;SDS011;33653;52.302;8.134;2023-05-15T07:11:18;30.27;;;16.08;;
47894;SDS011;33653;52.302;8.134;2023-05-15T07:13:47;28.50;;;17.75;;
47894;SDS011;33653;52.302;8.134;2023-05-15T07:16:16;30.52;;;17.08;;
47894;SDS011;33653;52.302;8.134;2023-05-15T07:18:46;26.83;;;16.10;;
47894;SDS011;33653;52.302;8.134;2023-05-15T07:21:14;26.48;;;16.90;;
47894;SDS011;33653;52.302;8.134;2023-05-15T07:23:43;26.67;;;16.75;;
47894;SDS011;33653;52.302;8.134;2023-05-15T07:26:12;25.92;;;16.80;;
47894;SDS011;33653;52.302;8.134;2023-05-15T07:28:57;28.42;;;17.52;;
47894;SDS011;33653;52.302;8.134;2023-05-15T07:31:25;27.95;;;17.30;;
47894;SDS011;33653;52.302;8.134;2023-05-15T07:33:54;23.67;;;15.82;;
47894;SDS011;33653;52.302;8.134;2023-05-15T07:36:23;27.63;;;17.30;;
47894;SDS011;33653;52.302;8.134;2023-05-15T07:38:51;28.70;;;17.73;;
47894;SDS011;33653;52.302;8.134;2023-05-15T07:41:19;29.40;;;18.20;;
47894;SDS011;33653;52.302;8.134;2023-05-15T07:43:47;28.65;;;17.00;;
47894;SDS011;33653;52.302;8.134;2023-05-15T07:46:16;32.75;;;18.77;;
47894;SDS011;33653;52.302;8.134;2023-05-15T07:48:44;31.40;;;18.33;;
47894;SDS011;33653;52.302;8.134;2023-05-15T07:51:12;35.67;;;20.33;;
47894;SDS011;33653;52.302;8.134;2023-05-15T07:53:41;30.38;;;19.73;;
47894;SDS011;33653;52.302;8.134;2023-05-15T07:56:09;30.52;;;18.60;;
47894;SDS011;33653;52.302;8.134;2023-05-15T07:58:37;28.60;;;18.25;;
47894;SDS011;33653;52.302;8.134;2023-05-15T08:01:06;30.35;;;18.35;;
47894;SDS011;33653;52.302;8.134;2023-05-15T08:03:34;34.63;;;19.40;;
47894;SDS011;33653;52.302;8.134;2023-05-15T08:06:03;32.35;;;19.02;;
47894;SDS011;33653;52.302;8.134;2023-05-15T08:08:33;30.95;;;19.73;;
47894;SDS011;33653;52.302;8.134;2023-05-15T08:11:01;31.67;;;19.92;;
47894;SDS011;33653;52.302;8.134;2023-05-15T08:13:30;27.63;;;17.58;;
47894;SDS011;33653;52.302;8.134;2023-05-15T08:15:58;29.25;;;17.67;;
47894;SDS011;33653;52.302;8.134;2023-05-15T08:18:26;27.45;;;16.70;;
47894;SDS011;33653;52.302;8.134;2023-05-15T08:20:55;28.23;;;16.23;;
47894;SDS011;33653;52.302;8.134;2023-05-15T08:23:23;28.42;;;16.02;;
47894;SDS011;33653;52.302;8.134;2023-05-15T08:25:51;25.90;;;15.60;;
47894;SDS011;33653;52.302;8.134;2023-05-15T08:28:19;22.23;;;15.27;;
47894;SDS011;33653;52.302;8.134;2023-05-15T08:30:48;28.25;;;15.63;;
47894;SDS011;33653;52.302;8.134;2023-05-15T08:33:16;28.33;;;16.33;;
47894;SDS011;33653;52.302;8.134;2023-05-15T08:35:44;22.13;;;14.65;;
47894;SDS011;33653;52.302;8.134;2023-05-15T08:38:13;24.05;;;15.82;;
47894;SDS011;33653;52.302;8.134;2023-05-15T08:40:45;30.23;;;16.38;;
47894;SDS011;33653;52.302;8.134;2023-05-15T08:43:14;29.20;;;16.90;;
47894;SDS011;33653;52.302;8.134;2023-05-15T08:45:43;27.65;;;16.58;;
47894;SDS011;33653;52.302;8.134;2023-05-15T08:48:13;26.17;;;15.80;;
47894;SDS011;33653;52.302;8.134;2023-05-15T08:50:45;24.75;;;15.85;;
47894;SDS011;33653;52.302;8.134;2023-05-15T08:53:14;28.88;;;16.10;;
47894;SDS011;33653;52.302;8.134;2023-05-15T08:55:42;24.15;;;14.75;;
47894;SDS011;33653;52.302;8.134;2023-05-15T08:58:11;25.55;;;15.52;;
47894;SDS011;33653;52.302;8.134;2023-05-15T09:00:40;23.52;;;15.10;;
47894;SDS011;33653;52.302;8.134;2023-05-15T09:03:12;24.48;;;14.40;;
47894;SDS011;33653;52.302;8.134;2023-05-15T09:05:42;27.48;;;14.50;;
47894;SDS011;33653;52.302;8.134;2023-05-15T09:08:12;26.40;;;15.00;;
47894;SDS011;33653;52.302;8.134;2023-05-15T09:10:44;21.73;;;13.10;;
47894;SDS011;33653;52.302;8.134;2023-05-15T09:15:41;23.75;;;14.85;;
47894;SDS011;33653;52.302;8.134;2023-05-15T09:18:09;26.92;;;15.05;;
47894;SDS011;33653;52.302;8.134;2023-05-15T09:20:38;21.90;;;13.63;;
47894;SDS011;33653;52.302;8.134;2023-05-15T09:23:22;27.30;;;15.85;;
47894;SDS011;33653;52.302;8.134;2023-05-15T09:25:52;25.02;;;14.82;;
47894;SDS011;33653;52.302;8.134;2023-05-15T09:28:27;24.33;;;13.45;;
47894;SDS011;33653;52.302;8.134;2023-05-15T09:31:00;24.42;;;14.65;;
47894;SDS011;33653;52.302;8.134;2023-05-15T09:33:37;25.92;;;14.35;;
47894;SDS011;33653;52.302;8.134;2023-05-15T09:36:08;23.02;;;14.65;;
47894;SDS011;33653;52.302;8.134;2023-05-15T09:38:40;22.27;;;13.82;;
47894;SDS011;33653;52.302;8.134;2023-05-15T09:41:13;24.85;;;14.43;;
47894;SDS011;33653;52.302;8.134;2023-05-15T09:43:42;20.98;;;13.50;;
47894;SDS011;33653;52.302;8.134;2023-05-15T09:46:10;22.70;;;13.27;;
47894;SDS011;33653;52.302;8.134;2023-05-15T09:48:41;19.73;;;11.95;;
47894;SDS011;33653;52.302;8.134;2023-05-15T09:51:17;21.85;;;13.38;;
47894;SDS011;33653;52.302;8.134;2023-05-15T09:53:49;20.92;;;13.52;;
47894;SDS011;33653;52.302;8.134;2023-05-15T09:56:19;18.60;;;12.30;;
47894;SDS011;33653;52.302;8.134;2023-05-15T09:58:55;17.42;;;11.88;;
47894;SDS011;33653;52.302;8.134;2023-05-15T10:01:25;21.70;;;12.90;;
47894;SDS011;33653;52.302;8.134;2023-05-15T10:04:00;21.27;;;13.68;;
47894;SDS011;33653;52.302;8.134;2023-05-15T10:06:36;18.13;;;12.50;;
47894;SDS011;33653;52.302;8.134;2023-05-15T10:09:14;18.65;;;11.88;;
47894;SDS011;33653;52.302;8.134;2023-05-15T10:11:46;16.58;;;11.45;;
47894;SDS011;33653;52.302;8.134;2023-05-15T10:14:20;18.08;;;11.85;;
47894;SDS011;33653;52.302;8.134;2023-05-15T10:16:51;20.10;;;12.48;;
47894;SDS011;33653;52.302;8.134;2023-05-15T10:19:20;20.08;;;12.73;;
47894;SDS011;33653;52.302;8.134;2023-05-15T10:21:52;20.90;;;13.48;;
47894;SDS011;33653;52.302;8.134;2023-05-15T10:24:20;20.58;;;12.85;;
47894;SDS011;33653;52.302;8.134;2023-05-15T10:26:50;20.05;;;12.48;;
47894;SDS011;33653;52.302;8.134;2023-05-15T10:29:18;20.23;;;12.45;;
47894;SDS011;33653;52.302;8.134;2023-05-15T10:31:51;19.80;;;12.70;;
47894;SDS011;33653;52.302;8.134;2023-05-15T10:34:20;17.65;;;11.15;;
47894;SDS011;33653;52.302;8.134;2023-05-15T10:36:49;22.83;;;12.50;;
47894;SDS011;33653;52.302;8.134;2023-05-15T10:39:18;20.67;;;12.48;;
47894;SDS011;33653;52.302;8.134;2023-05-15T10:41:47;22.27;;;14.63;;
47894;SDS011;33653;52.302;8.134;2023-05-15T10:44:17;23.42;;;13.55;;
47894;SDS011;33653;52.302;8.134;2023-05-15T10:46:46;18.23;;;12.13;;
47894;SDS011;33653;52.302;8.134;2023-05-15T10:49:15;22.75;;;12.27;;
47894;SDS011;33653;52.302;8.134;2023-05-15T10:51:44;22.00;;;12.10;;
47894;SDS011;33653;52.302;8.134;2023-05-15T10:54:12;22.02;;;12.88;;
47894;SDS011;33653;52.302;8.134;2023-05-15T10:56:41;17.92;;;12.60;;
47894;SDS011;33653;52.302;8.134;2023-05-15T10:59:10;19.13;;;11.80;;
47894;SDS011;33653;52.302;8.134;2023-05-15T11:01:39;18.88;;;11.63;;
47894;SDS011;33653;52.302;8.134;2023-05-15T11:09:58;17.52;;;11.90;;
47894;SDS011;33653;52.302;8.134;2023-05-15T11:12:31;22.45;;;11.65;;
47894;SDS011;33653;52.302;8.134;2023-05-15T11:15:25;18.02;;;12.48;;
47894;SDS011;33653;52.302;8.134;2023-05-15T11:18:00;17.52;;;12.50;;
47894;SDS011;33653;52.302;8.134;2023-05-15T11:20:41;18.05;;;11.88;;
47894;SDS011;33653;52.302;8.134;2023-05-15T11:23:36;16.20;;;10.52;;
47894;SDS011;33653;52.302;8.134;2023-05-15T11:26:08;18.50;;;10.63;;
47894;SDS011;33653;52.302;8.134;2023-05-15T11:28:40;16.83;;;11.93;;
47894;SDS011;33653;52.302;8.134;2023-05-15T11:31:09;18.73;;;11.93;;
47894;SDS011;33653;52.302;8.134;2023-05-15T11:33:38;14.60;;;10.52;;
47894;SDS011;33653;52.302;8.134;2023-05-15T11:36:06;16.15;;;10.55;;
47894;SDS011;33653;52.302;8.134;2023-05-15T11:38:36;15.98;;;10.55;;
47894;SDS011;33653;52.302;8.134;2023-05-15T11:41:16;15.05;;;9.98;;
47894;SDS011;33653;52.302;8.134;2023-05-15T11:43:47;16.02;;;10.38;;
47894;SDS011;33653;52.302;8.134;2023-05-15T11:46:16;17.38;;;10.30;;
47894;SDS011;33653;52.302;8.134;2023-05-15T11:48:45;15.10;;;9.88;;
47894;SDS011;33653;52.302;8.134;2023-05-15T11:51:24;14.82;;;10.27;;
47894;SDS011;33653;52.302;8.134;2023-05-15T11:53:54;16.03;;;11.00;;
47894;SDS011;33653;52.302;8.134;2023-05-15T11:56:24;14.15;;;10.63;;
47894;SDS011;33653;52.302;8.134;2023-05-15T11:58:57;14.38;;;9.90;;
47894;SDS011;33653;52.302;8.134;2023-05-15T12:01:27;12.02;;;8.82;;
47894;SDS011;33653;52.302;8.134;2023-05-15T12:04:10;15.95;;;10.32;;
47894;SDS011;33653;52.302;8.134;2023-05-15T12:06:44;15.15;;;10.05;;
47894;SDS011;33653;52.302;8.134;2023-05-15T12:09:16;16.48;;;10.85;;
47894;SDS011;33653;52.302;8.134;2023-05-15T12:11:52;15.82;;;10.20;;
47894;SDS011;33653;52.302;8.134;2023-05-15T12:14:28;14.55;;;9.68;;
47894;SDS011;33653;52.302;8.134;2023-05-15T12:17:00;15.38;;;10.32;;
47894;SDS011;33653;52.302;8.134;2023-05-15T12:19:30;16.65;;;10.32;;
47894;SDS011;33653;52.302;8.134;2023-05-15T12:22:05;14.32;;;10.23;;
47894;SDS011;33653;52.302;8.134;2023-05-15T12:24:36;14.18;;;9.50;;
47894;SDS011;33653;52.302;8.134;2023-05-15T12:27:06;14.40;;;9.45;;
47894;SDS011;33653;52.302;8.134;2023-05-15T12:29:36;14.50;;;9.43;;
47894;SDS011;33653;52.302;8.134;2023-05-15T12:32:05;13.50;;;10.10;;
47894;SDS011;33653;52.302;8.134;2023-05-15T12:34:34;16.80;;;10.40;;
47894;SDS011;33653;52.302;8.134;2023-05-15T12:37:03;12.02;;;8.90;;
47894;SDS011;33653;52.302;8.134;2023-05-15T12:39:32;12.93;;;9.35;;
47894;SDS011;33653;52.302;8.134;2023-05-15T12:42:00;17.02;;;10.05;;
47894;SDS011;33653;52.302;8.134;2023-05-15T12:44:29;12.80;;;8.80;;
47894;SDS011;33653;52.302;8.134;2023-05-15T12:46:58;12.80;;;8.48;;
47894;SDS011;33653;52.302;8.134;2023-05-15T12:49:26;16.23;;;10.30;;
47894;SDS011;33653;52.302;8.134;2023-05-15T12:51:55;14.43;;;9.23;;
47894;SDS011;33653;52.302;8.134;2023-05-15T12:54:23;13.38;;;9.07;;
47894;SDS011;33653;52.302;8.134;2023-05-15T12:56:52;12.95;;;8.57;;
47894;SDS011;33653;52.302;8.134;2023-05-15T12:59:23;12.00;;;9.13;;
47894;SDS011;33653;52.302;8.134;2023-05-15T13:01:52;15.52;;;10.38;;
47894;SDS011;33653;52.302;8.134;2023-05-15T13:04:20;11.70;;;8.13;;
47894;SDS011;33653;52.302;8.134;2023-05-15T13:06:48;14.38;;;9.60;;
47894;SDS011;33653;52.302;8.134;2023-05-15T13:09:21;11.60;;;9.02;;
47894;SDS011;33653;52.302;8.134;2023-05-15T13:11:53;9.77;;;7.90;;
47894;SDS011;33653;52.302;8.134;2023-05-15T13:14:22;13.35;;;9.13;;
47894;SDS011;33653;52.302;8.134;2023-05-15T13:16:57;12.63;;;8.48;;
47894;SDS011;33653;52.302;8.134;2023-05-15T13:19:32;11.60;;;8.25;;
47894;SDS011;33653;52.302;8.134;2023-05-15T13:22:00;14.10;;;9.50;;
47894;SDS011;33653;52.302;8.134;2023-05-15T13:24:29;15.23;;;9.77;;
47894;SDS011;33653;52.302;8.134;2023-05-15T13:26:58;16.05;;;9.73;;
47894;SDS011;33653;52.302;8.134;2023-05-15T13:29:27;16.63;;;9.57;;
47894;SDS011;33653;52.302;8.134;2023-05-15T13:31:56;13.00;;;8.30;;
47894;SDS011;33653;52.302;8.134;2023-05-15T13:34:25;11.13;;;7.88;;
47894;SDS011;33653;52.302;8.134;2023-05-15T13:36:53;11.18;;;8.30;;
47894;SDS011;33653;52.302;8.134;2023-05-15T13:39:21;13.68;;;9.43;;
47894;SDS011;33653;52.302;8.134;2023-05-15T13:41:50;13.25;;;8.98;;
47894;SDS011;33653;52.302;8.134;2023-05-15T13:44:18;13.13;;;8.80;;
47894;SDS011;33653;52.302;8.134;2023-05-15T13:46:46;11.77;;;8.48;;
47894;SDS011;33653;52.302;8.134;2023-05-15T13:49:15;10.73;;;8.00;;
47894;SDS011;33653;52.302;8.134;2023-05-15T13:51:43;9.98;;;6.95;;
47894;SDS011;33653;52.302;8.134;2023-05-15T13:54:11;10.90;;;8.02;;
47894;SDS011;33653;52.302;8.134;2023-05-15T13:56:40;14.15;;;7.20;;
47894;SDS011;33653;52.302;8.134;2023-05-15T13:59:08;6.72;;;5.90;;
47894;SDS011;33653;52.302;8.134;2023-05-15T14:01:37;13.02;;;6.05;;
47894;SDS011;33653;52.302;8.134;2023-05-15T14:04:05;6.05;;;4.88;;
47894;SDS011;33653;52.302;8.134;2023-05-15T14:06:33;7.47;;;4.88;;
47894;SDS011;33653;52.302;8.134;2023-05-15T14:09:02;5.88;;;4.88;;
47894;SDS011;33653;52.302;8.134;2023-05-15T14:11:30;7.82;;;5.05;;
47894;SDS011;33653;52.302;8.134;2023-05-15T14:13:59;8.57;;;6.20;;
47894;SDS011;33653;52.302;8.134;2023-05-15T14:16:27;8.02;;;6.35;;
47894;SDS011;33653;52.302;8.134;2023-05-15T14:18:55;10.48;;;5.80;;
47894;SDS011;33653;52.302;8.134;2023-05-15T14:21:24;10.13;;;6.93;;
47894;SDS011;33653;52.302;8.134;2023-05-15T14:23:53;9.82;;;6.72;;
47894;SDS011;33653;52.302;8.134;2023-05-15T14:26:23;10.33;;;6.43;;
47894;SDS011;33653;52.302;8.134;2023-05-15T14:28:51;7.23;;;5.50;;
47894;SDS011;33653;52.302;8.134;2023-05-15T14:31:20;7.13;;;5.50;;
47894;SDS011;33653;52.302;8.134;2023-05-15T14:33:48;9.25;;;5.60;;
47894;SDS011;33653;52.302;8.134;2023-05-15T14:38:46;7.00;;;5.18;;
47894;SDS011;33653;52.302;8.134;2023-05-15T14:41:15;5.53;;;4.30;;
47894;SDS011;33653;52.302;8.134;2023-05-15T14:43:44;9.07;;;5.13;;
47894;SDS011;33653;52.302;8.134;2023-05-15T14:46:13;7.28;;;5.20;;
47894;SDS011;33653;52.302;8.134;2023-05-15T14:48:41;7.75;;;5.28;;
47894;SDS011;33653;52.302;8.134;2023-05-15T14:51:11;9.52;;;4.75;;
47894;SDS011;33653;52.302;8.134;2023-05-15T14:53:40;7.32;;;5.63;;
47894;SDS011;33653;52.302;8.134;2023-05-15T14:56:09;8.80;;;5.85;;
47894;SDS011;33653;52.302;8.134;2023-05-15T14:58:37;5.47;;;4.65;;
47894;SDS011;33653;52.302;8.134;2023-05-15T15:01:06;7.50;;;5.53;;
47894;SDS011;33653;52.302;8.134;2023-05-15T15:03:34;8.13;;;5.13;;
47894;SDS011;33653;52.302;8.134;2023-05-15T15:06:03;6.78;;;4.70;;
47894;SDS011;33653;52.302;8.134;2023-05-15T15:08:32;6.60;;;4.32;;
47894;SDS011;33653;52.302;8.134;2023-05-15T15:11:00;5.60;;;4.57;;
47894;SDS011;33653;52.302;8.134;2023-05-15T15:13:28;4.18;;;3.72;;
47894;SDS011;33653;52.302;8.134;2023-05-15T15:15:57;5.30;;;3.50;;
47894;SDS011;33653;52.302;8.134;2023-05-15T15:18:25;6.03;;;3.63;;
47894;SDS011;33653;52.302;8.134;2023-05-15T15:20:53;6.75;;;4.30;;
47894;SDS011;33653;52.302;8.134;2023-05-15T15:23:21;5.03;;;4.03;;
47894;SDS011;33653;52.302;8.134;2023-05-15T15:25:50;5.80;;;4.38;;
47894;SDS011;33653;52.302;8.134;2023-05-15T15:28:18;6.35;;;4.53;;
47894;SDS011;33653;52.302;8.134;2023-05-15T15:30:46;8.43;;;4.25;;
47894;SDS011;33653;52.302;8.134;2023-05-15T15:33:15;5.80;;;3.70;;